createdAt,value
2019-05-15T00:00:42.209Z,4.95
2019-05-15T00:03:08.777Z,5.55
2019-05-15T00:05:35.269Z,5.67
2019-05-15T00:08:01.936Z,6.10
2019-05-15T00:10:28.770Z,5.78
2019-05-15T00:12:57.965Z,5.35
2019-05-15T00:15:24.212Z,4.87
2019-05-15T00:17:50.780Z,5.42
2019-05-15T00:20:20.053Z,5.42
2019-05-15T00:22:45.703Z,5.37
2019-05-15T00:25:12.508Z,5.40
2019-05-15T00:27:39.070Z,5.55
2019-05-15T00:30:08.659Z,5.80
2019-05-15T00:32:35.491Z,6.10
2019-05-15T00:35:04.871Z,5.05
2019-05-15T00:37:31.229Z,6.60
2019-05-15T00:39:59.199Z,6.60
2019-05-15T00:42:25.731Z,6.37
2019-05-15T00:44:52.409Z,5.45
2019-05-15T00:47:19.024Z,5.47
2019-05-15T00:49:45.647Z,5.40
2019-05-15T00:52:12.450Z,5.47
2019-05-15T00:54:38.958Z,5.45
2019-05-15T00:57:05.617Z,5.03
2019-05-15T00:59:32.202Z,5.00
2019-05-15T01:01:59.430Z,4.62
2019-05-15T01:04:27.966Z,5.30
2019-05-15T01:06:54.235Z,4.85
2019-05-15T01:09:20.845Z,5.33
2019-05-15T01:11:48.829Z,4.70
2019-05-15T01:14:15.341Z,5.12
2019-05-15T01:16:41.957Z,4.85
2019-05-15T01:19:09.187Z,4.62
2019-05-15T01:21:35.572Z,5.78
2019-05-15T01:24:02.071Z,5.37
2019-05-15T01:26:28.628Z,4.70
2019-05-15T01:28:55.150Z,4.87
2019-05-15T01:31:21.828Z,5.40
2019-05-15T01:33:48.433Z,4.65
2019-05-15T01:36:15.199Z,4.92
2019-05-15T01:38:41.699Z,5.67
2019-05-15T01:41:09.669Z,5.12
2019-05-15T01:43:38.114Z,4.50
2019-05-15T01:46:04.481Z,4.83
2019-05-15T01:48:31.144Z,4.40
2019-05-15T01:50:58.546Z,5.17
2019-05-15T01:53:25.252Z,5.00
2019-05-15T01:55:51.890Z,4.65
2019-05-15T01:58:18.947Z,4.78
2019-05-15T02:00:45.668Z,4.67
2019-05-15T02:03:12.193Z,5.05
2019-05-15T02:05:39.112Z,4.97
2019-05-15T02:08:08.031Z,6.47
2019-05-15T02:10:34.040Z,4.95
2019-05-15T02:13:00.385Z,5.45
2019-05-15T02:15:28.543Z,5.25
2019-05-15T02:17:55.907Z,5.80
2019-05-15T02:20:22.372Z,5.67
2019-05-15T02:22:48.981Z,6.30
2019-05-15T02:25:15.724Z,5.87
2019-05-15T02:27:42.287Z,6.55
2019-05-15T02:30:22.109Z,5.92
2019-05-15T02:32:39.441Z,5.87
2019-05-15T02:35:09.528Z,8.30
2019-05-15T02:37:34.541Z,6.12
2019-05-15T02:40:01.501Z,5.75
2019-05-15T02:42:28.985Z,5.83
2019-05-15T02:44:58.518Z,6.10
2019-05-15T02:47:24.384Z,6.97
2019-05-15T02:49:51.053Z,6.20
2019-05-15T02:52:19.918Z,6.45
2019-05-15T02:54:49.517Z,6.85
2019-05-15T02:57:14.208Z,6.35
2019-05-15T02:59:40.844Z,6.45
2019-05-15T03:02:09.869Z,6.28
2019-05-15T03:04:35.377Z,6.78
2019-05-15T03:07:02.269Z,6.33
2019-05-15T03:09:29.834Z,6.28
2019-05-15T03:11:58.709Z,6.35
2019-05-15T03:14:25.187Z,5.80
2019-05-15T03:16:51.973Z,5.65
2019-05-15T03:19:19.229Z,5.17
2019-05-15T03:21:49.392Z,6.55
2019-05-15T03:24:14.106Z,7.53
2019-05-15T03:26:40.460Z,6.47
2019-05-15T03:29:09.876Z,6.20
2019-05-15T03:31:57.605Z,6.22
2019-05-15T03:34:04.273Z,6.72
2019-05-15T03:36:32.009Z,7.37
2019-05-15T03:38:59.104Z,7.17
2019-05-15T03:41:25.314Z,6.62
2019-05-15T03:43:52.039Z,7.12
2019-05-15T03:46:20.033Z,6.85
2019-05-15T03:48:48.700Z,7.67
2019-05-15T03:51:15.205Z,8.15
2019-05-15T03:53:41.644Z,7.10
2019-05-15T03:56:09.790Z,8.05
2019-05-15T03:58:39.709Z,7.90
2019-05-15T04:01:25.487Z,8.60
2019-05-15T04:03:33.544Z,8.33
2019-05-15T04:06:00.642Z,7.47
2019-05-15T04:08:29.873Z,8.20
2019-05-15T04:10:55.245Z,7.78
2019-05-15T04:13:21.746Z,6.62
2019-05-15T04:15:50.198Z,7.70
2019-05-15T04:18:19.876Z,8.18
2019-05-15T04:20:45.771Z,7.40
2019-05-15T04:23:18.927Z,8.60
2019-05-15T04:25:49.423Z,7.67
2019-05-15T04:28:19.352Z,8.10
2019-05-15T04:30:46.024Z,7.87
2019-05-15T04:33:12.429Z,8.63
2019-05-15T04:35:39.929Z,9.45
2019-05-15T04:38:09.394Z,9.03
2019-05-15T04:40:35.256Z,9.35
2019-05-15T04:43:01.580Z,12.93
2019-05-15T04:45:34.422Z,10.70
2019-05-15T04:47:58.772Z,11.68
2019-05-15T04:50:24.673Z,12.60
2019-05-15T04:52:51.326Z,11.73
2019-05-15T04:55:19.717Z,11.33
2019-05-15T04:57:46.257Z,11.40
2019-05-15T05:00:13.092Z,9.90
2019-05-15T05:02:40.537Z,9.65
2019-05-15T05:05:10.083Z,10.28
2019-05-15T05:07:39.015Z,8.58
2019-05-15T05:10:09.163Z,9.55
2019-05-15T05:12:34.254Z,10.15
2019-05-15T05:15:00.897Z,8.55
2019-05-15T05:17:28.857Z,9.40
2019-05-15T05:19:55.425Z,9.55
2019-05-15T05:22:22.006Z,8.85
2019-05-15T05:24:48.288Z,9.48
2019-05-15T05:27:14.532Z,8.88
2019-05-15T05:29:41.133Z,8.38
2019-05-15T05:32:09.189Z,9.35
2019-05-15T05:34:35.664Z,10.85
2019-05-15T05:37:01.908Z,8.85
2019-05-15T05:39:29.439Z,10.13
2019-05-15T05:41:56.121Z,8.85
2019-05-15T05:44:23.391Z,10.35
2019-05-15T05:46:49.689Z,9.28
2019-05-15T05:49:18.390Z,9.68
2019-05-15T05:51:44.589Z,8.43
2019-05-15T05:54:11.164Z,9.45
2019-05-15T05:56:38.815Z,8.88
2019-05-15T05:59:06.122Z,8.95
2019-05-15T06:01:35.963Z,9.38
2019-05-15T06:04:01.035Z,8.35
2019-05-15T06:06:29.236Z,8.80
2019-05-15T06:08:58.287Z,8.60
2019-05-15T06:11:24.193Z,7.45
2019-05-15T06:13:52.545Z,7.53
2019-05-15T06:16:19.213Z,7.92
2019-05-15T06:18:45.743Z,7.45
2019-05-15T06:21:12.425Z,8.45
2019-05-15T06:23:45.317Z,7.50
2019-05-15T06:26:09.599Z,10.88
2019-05-15T06:28:35.138Z,7.53
2019-05-15T06:31:01.478Z,6.72
2019-05-15T06:33:49.383Z,6.65
2019-05-15T06:36:17.869Z,7.75
2019-05-15T06:38:43.705Z,6.20
2019-05-15T06:41:10.087Z,6.05
2019-05-15T06:43:38.661Z,6.60
2019-05-15T06:46:04.483Z,6.55
2019-05-15T06:48:30.715Z,7.03
2019-05-15T06:50:57.961Z,7.40
2019-05-15T06:53:24.515Z,5.72
2019-05-15T06:55:50.809Z,6.75
2019-05-15T06:58:19.059Z,6.55
2019-05-15T07:00:45.096Z,7.72
2019-05-15T07:03:21.511Z,7.72
2019-05-15T07:05:39.503Z,6.72
2019-05-15T07:08:05.801Z,6.85
2019-05-15T07:10:32.093Z,6.58
2019-05-15T07:12:58.573Z,7.28
2019-05-15T07:15:27.720Z,6.42
2019-05-15T07:17:53.331Z,6.50
2019-05-15T07:20:20.556Z,6.58
2019-05-15T07:22:49.106Z,6.33
2019-05-15T07:25:15.684Z,6.75
2019-05-15T07:27:41.911Z,6.85
2019-05-15T07:30:29.949Z,6.72
2019-05-15T07:32:58.336Z,6.72
2019-05-15T07:35:24.421Z,6.17
2019-05-15T07:37:50.992Z,7.35
2019-05-15T07:40:19.330Z,7.47
2019-05-15T07:42:48.797Z,7.27
2019-05-15T07:45:19.580Z,5.75
2019-05-15T07:47:44.542Z,5.58
2019-05-15T07:50:12.175Z,5.25
2019-05-15T07:52:39.577Z,6.05
2019-05-15T07:55:08.695Z,5.72
2019-05-15T07:57:35.227Z,5.67
2019-05-15T08:00:01.697Z,6.97
2019-05-15T08:02:28.465Z,5.37
2019-05-15T08:04:55.105Z,5.58
2019-05-15T08:07:21.379Z,5.25
2019-05-15T08:09:48.651Z,5.65
2019-05-15T08:12:15.447Z,5.67
2019-05-15T08:14:41.711Z,4.75
2019-05-15T08:17:08.669Z,3.67
2019-05-15T08:19:37.822Z,4.45
2019-05-15T08:22:03.594Z,4.40
2019-05-15T08:24:30.055Z,4.28
2019-05-15T08:26:58.145Z,4.33
2019-05-15T08:29:24.656Z,4.65
2019-05-15T08:31:52.217Z,4.67
2019-05-15T08:34:19.622Z,3.72
2019-05-15T08:36:48.302Z,3.10
2019-05-15T08:39:14.481Z,3.20
2019-05-15T08:41:40.812Z,3.35
2019-05-15T08:44:08.750Z,2.60
2019-05-15T08:46:35.711Z,3.05
2019-05-15T08:49:01.940Z,3.50
2019-05-15T08:51:28.518Z,3.77
2019-05-15T08:53:54.999Z,3.05
2019-05-15T08:56:21.261Z,3.27
2019-05-15T08:58:48.658Z,3.27
2019-05-15T09:01:15.492Z,2.85
2019-05-15T09:03:41.723Z,2.40
2019-05-15T09:06:09.108Z,2.47
2019-05-15T09:08:39.091Z,2.42
2019-05-15T09:11:05.244Z,2.85
2019-05-15T09:13:31.484Z,3.40
2019-05-15T09:15:58.887Z,2.52
2019-05-15T09:18:28.203Z,3.17
2019-05-15T09:20:53.959Z,3.33
2019-05-15T09:23:20.308Z,4.25
2019-05-15T09:25:49.375Z,3.75
2019-05-15T09:28:14.852Z,4.55
2019-05-15T09:30:53.644Z,4.60
2019-05-15T09:33:20.412Z,4.70
2019-05-15T09:35:49.018Z,4.35
2019-05-15T09:38:15.010Z,3.77
2019-05-15T09:40:46.270Z,3.95
2019-05-15T09:43:10.755Z,4.97
2019-05-15T09:45:38.175Z,2.77
2019-05-15T09:48:04.903Z,2.60
2019-05-15T09:50:31.130Z,4.20
2019-05-15T09:52:58.818Z,3.50
2019-05-15T09:55:25.357Z,2.50
2019-05-15T09:57:54.908Z,2.45
2019-05-15T10:00:29.255Z,3.05
2019-05-15T10:02:55.316Z,2.83
2019-05-15T10:05:21.743Z,2.98
2019-05-15T10:07:48.135Z,2.50
2019-05-15T10:10:14.583Z,3.15
2019-05-15T10:12:40.864Z,3.10
2019-05-15T10:15:11.439Z,2.98
2019-05-15T10:17:36.463Z,3.10
2019-05-15T10:20:08.952Z,3.20
2019-05-15T10:22:34.975Z,2.70
2019-05-15T10:25:01.316Z,2.50
2019-05-15T10:27:28.695Z,2.20
2019-05-15T10:29:55.115Z,2.12
2019-05-15T10:32:21.376Z,3.00
2019-05-15T10:34:47.738Z,2.60
2019-05-15T10:37:13.993Z,2.47
2019-05-15T10:39:40.237Z,2.15
2019-05-15T10:42:08.201Z,2.27
2019-05-15T10:44:35.865Z,2.62
2019-05-15T10:47:02.138Z,2.37
2019-05-15T10:49:28.402Z,2.95
2019-05-15T10:51:54.635Z,3.10
2019-05-15T10:54:21.045Z,2.85
2019-05-15T10:56:47.372Z,3.25
2019-05-15T10:59:13.603Z,3.37
2019-05-15T11:01:40.049Z,2.83
2019-05-15T11:04:08.902Z,2.62
2019-05-15T11:06:34.571Z,3.17
2019-05-15T11:09:00.839Z,3.12
2019-05-15T11:11:27.059Z,2.80
2019-05-15T11:13:53.524Z,2.70
2019-05-15T11:16:21.271Z,3.02
2019-05-15T11:18:48.192Z,4.35
2019-05-15T11:21:14.948Z,3.30
2019-05-15T11:23:42.519Z,2.70
2019-05-15T11:26:09.547Z,3.10
2019-05-15T11:28:38.749Z,3.33
2019-05-15T11:31:04.133Z,2.75
2019-05-15T11:33:30.401Z,4.20
2019-05-15T11:36:04.215Z,3.87
2019-05-15T11:38:24.719Z,4.12
2019-05-15T11:40:50.990Z,3.92
2019-05-15T11:43:19.743Z,3.05
2019-05-15T11:45:47.794Z,4.22
2019-05-15T11:48:13.496Z,3.72
2019-05-15T11:50:40.254Z,2.60
2019-05-15T11:53:08.698Z,2.60
2019-05-15T11:55:34.736Z,3.15
2019-05-15T11:58:00.967Z,3.10
2019-05-15T12:00:30.230Z,3.47
2019-05-15T12:02:58.233Z,3.67
2019-05-15T12:05:23.644Z,2.35
2019-05-15T12:07:49.895Z,3.17
2019-05-15T12:10:18.505Z,2.80
2019-05-15T12:12:44.540Z,3.70
2019-05-15T12:15:11.877Z,2.90
2019-05-15T12:17:39.029Z,3.05
2019-05-15T12:20:07.272Z,3.10
2019-05-15T12:22:34.606Z,4.77
2019-05-15T12:25:01.671Z,3.65
2019-05-15T12:27:28.395Z,3.75
2019-05-15T12:29:55.090Z,3.47
2019-05-15T12:32:31.245Z,3.67
2019-05-15T12:34:49.697Z,3.42
2019-05-15T12:37:16.307Z,3.77
2019-05-15T12:39:42.594Z,3.83
2019-05-15T12:59:40.987Z,3.05
2019-05-15T13:01:53.302Z,3.30
2019-05-15T13:04:19.994Z,3.98
2019-05-15T13:06:55.756Z,2.87
2019-05-15T13:09:14.897Z,3.35
2019-05-15T13:11:41.141Z,3.27
2019-05-15T13:14:08.121Z,3.50
2019-05-15T13:16:34.741Z,3.15
2019-05-15T13:19:00.976Z,2.83
2019-05-15T13:21:29.452Z,3.00
2019-05-15T13:23:55.286Z,3.00
2019-05-15T13:26:26.529Z,2.95
2019-05-15T13:28:49.837Z,3.02
2019-05-15T13:31:16.077Z,3.33
2019-05-15T13:33:42.322Z,2.83
2019-05-15T13:36:09.081Z,3.27
2019-05-15T13:38:38.016Z,3.47
2019-05-15T13:41:04.003Z,3.15
2019-05-15T13:43:30.265Z,3.55
2019-05-15T13:45:58.118Z,2.58
2019-05-15T13:48:24.344Z,2.98
2019-05-15T13:50:50.595Z,2.37
2019-05-15T13:53:18.427Z,3.02
2019-05-15T13:55:44.939Z,1.80
2019-05-15T13:58:11.172Z,1.85
2019-05-15T14:00:38.875Z,2.42
2019-05-15T14:03:05.830Z,2.02
2019-05-15T14:05:32.096Z,2.25
2019-05-15T14:07:58.440Z,1.70
2019-05-15T14:10:24.694Z,1.65
2019-05-15T14:12:50.927Z,1.60
2019-05-15T14:15:17.882Z,2.25
2019-05-15T14:17:44.165Z,1.60
2019-05-15T14:20:10.912Z,1.67
2019-05-15T14:22:38.992Z,1.70
2019-05-15T14:25:08.897Z,2.25
2019-05-15T14:30:00.940Z,1.90
2019-05-15T14:32:38.399Z,1.90
2019-05-15T14:34:58.383Z,1.57
2019-05-15T14:37:24.279Z,1.70
2019-05-15T14:39:52.318Z,1.90
2019-05-15T14:42:18.770Z,1.67
2019-05-15T14:44:45.246Z,2.00
2019-05-15T14:47:11.521Z,1.65
2019-05-15T14:49:44.252Z,1.90
2019-05-15T14:52:09.266Z,1.77
2019-05-15T14:54:34.257Z,1.87
2019-05-15T14:57:00.520Z,1.87
2019-05-15T14:59:26.853Z,1.77
2019-05-15T15:01:53.273Z,2.10
2019-05-15T15:04:20.009Z,1.98
2019-05-15T15:06:48.530Z,1.70
2019-05-15T15:09:14.371Z,1.47
2019-05-15T15:11:40.628Z,1.75
2019-05-15T15:14:08.686Z,1.82
2019-05-15T15:16:34.917Z,2.72
2019-05-15T15:19:01.195Z,1.72
2019-05-15T15:21:29.307Z,1.90
2019-05-15T15:23:55.731Z,1.45
2019-05-15T15:26:21.995Z,1.82
2019-05-15T15:28:48.919Z,1.90
2019-05-15T15:31:15.570Z,1.75
2019-05-15T15:33:41.864Z,1.57
2019-05-15T15:36:08.812Z,1.27
2019-05-15T15:38:43.194Z,1.70
2019-05-15T15:41:04.615Z,2.00
2019-05-15T15:43:30.847Z,1.50
2019-05-15T15:45:58.083Z,1.60
2019-05-15T15:48:24.958Z,1.77
2019-05-15T15:50:51.238Z,1.70
2019-05-15T15:53:19.075Z,1.40
2019-05-15T15:55:45.488Z,1.35
2019-05-15T15:58:11.739Z,1.32
2019-05-15T16:00:38.523Z,2.02
2019-05-15T16:03:05.145Z,1.60
2019-05-15T16:05:31.376Z,2.08
2019-05-15T16:07:59.151Z,1.60
2019-05-15T16:10:25.523Z,1.55
2019-05-15T16:12:51.838Z,1.67
2019-05-15T16:15:18.273Z,1.65
2019-05-15T16:17:44.598Z,1.42
2019-05-15T16:20:11.682Z,1.30
2019-05-15T16:22:38.417Z,1.30
2019-05-15T16:25:28.716Z,1.50
2019-05-15T16:27:54.602Z,1.52
2019-05-15T16:30:20.962Z,1.60
2019-05-15T16:32:47.710Z,1.65
2019-05-15T16:35:14.426Z,1.30
2019-05-15T16:37:40.660Z,1.80
2019-05-15T16:40:07.688Z,1.47
2019-05-15T16:42:34.088Z,1.67
2019-05-15T16:45:00.288Z,1.82
2019-05-15T16:47:27.960Z,2.00
2019-05-15T16:49:54.487Z,1.65
2019-05-15T16:52:20.734Z,1.45
2019-05-15T16:54:48.989Z,1.40
2019-05-15T16:57:15.053Z,1.45
2019-05-15T16:59:41.480Z,1.20
2019-05-15T17:02:08.780Z,1.80
2019-05-15T17:04:38.067Z,1.65
2019-05-15T17:07:03.622Z,3.10
2019-05-15T17:09:30.605Z,1.80
2019-05-15T17:11:58.250Z,2.50
2019-05-15T17:14:24.665Z,2.15
2019-05-15T17:16:50.929Z,1.90
2019-05-15T17:19:18.028Z,1.55
2019-05-15T17:21:48.018Z,1.35
2019-05-15T17:24:14.666Z,1.80
2019-05-15T17:26:41.086Z,2.33
2019-05-15T17:29:08.911Z,1.87
2019-05-15T17:31:37.898Z,2.15
2019-05-15T17:34:04.284Z,1.80
2019-05-15T17:36:32.075Z,2.05
2019-05-15T17:38:59.052Z,2.05
2019-05-15T17:41:25.470Z,2.58
2019-05-15T17:43:51.691Z,1.75
2019-05-15T17:46:18.125Z,2.20
2019-05-15T17:48:44.415Z,1.70
2019-05-15T17:51:10.626Z,1.60
2019-05-15T17:53:38.299Z,2.80
2019-05-15T17:56:04.822Z,2.27
2019-05-15T17:58:31.084Z,2.30
2019-05-15T18:00:59.488Z,2.45
2019-05-15T18:03:28.575Z,2.20
2019-05-15T18:05:54.314Z,2.60
2019-05-15T18:08:21.025Z,2.52
2019-05-15T18:10:47.871Z,3.15
2019-05-15T18:13:15.035Z,2.70
2019-05-15T18:15:41.814Z,2.42
2019-05-15T18:18:09.449Z,2.80
2019-05-15T18:20:38.260Z,2.87
2019-05-15T18:23:04.195Z,2.70
2019-05-15T18:25:30.463Z,2.12
2019-05-15T18:27:59.137Z,2.72
2019-05-15T18:30:25.179Z,2.50
2019-05-15T18:32:51.862Z,2.58
2019-05-15T18:35:18.887Z,2.67
2019-05-15T18:37:48.152Z,2.75
2019-05-15T18:40:14.395Z,2.90
2019-05-15T18:42:40.827Z,2.60
2019-05-15T18:45:09.466Z,1.82
2019-05-15T18:47:35.869Z,1.52
2019-05-15T18:50:12.572Z,1.70
2019-05-15T18:52:38.141Z,1.80
2019-05-15T18:55:04.240Z,1.87
2019-05-15T18:57:31.013Z,2.42
2019-05-15T18:59:58.041Z,2.40
2019-05-15T19:02:24.694Z,3.75
2019-05-15T19:04:51.218Z,2.92
2019-05-15T19:07:18.223Z,3.83
2019-05-15T19:09:44.918Z,2.58
2019-05-15T19:12:11.575Z,2.10
2019-05-15T19:14:39.462Z,2.90
2019-05-15T19:17:08.111Z,3.10
2019-05-15T19:19:34.332Z,3.20
2019-05-15T19:22:00.949Z,3.40
2019-05-15T19:24:27.219Z,3.12
2019-05-15T19:26:53.447Z,2.47
2019-05-15T19:29:20.088Z,2.15
2019-05-15T19:31:47.230Z,2.45
2019-05-15T19:34:13.745Z,2.02
2019-05-15T19:36:40.402Z,1.77
2019-05-15T19:39:08.072Z,1.60
2019-05-15T19:41:34.902Z,1.80
2019-05-15T19:44:01.795Z,1.62
2019-05-15T19:46:28.419Z,2.35
2019-05-15T19:48:54.841Z,2.55
2019-05-15T19:51:21.458Z,1.67
2019-05-15T19:53:48.511Z,2.42
2019-05-15T19:56:14.746Z,2.52
2019-05-15T19:58:41.385Z,3.25
2019-05-15T20:01:08.233Z,2.12
2019-05-15T20:03:48.977Z,2.90
2019-05-15T20:06:03.312Z,2.72
2019-05-15T20:08:29.978Z,2.83
2019-05-15T20:10:59.131Z,3.10
2019-05-15T20:13:25.719Z,3.67
2019-05-15T20:15:52.336Z,2.50
2019-05-15T20:18:19.015Z,3.10
2019-05-15T20:20:47.408Z,2.83
2019-05-15T20:23:13.479Z,3.00
2019-05-15T20:25:39.775Z,3.83
2019-05-15T20:28:08.293Z,3.87
2019-05-15T20:30:34.449Z,5.62
2019-05-15T20:33:00.775Z,2.20
2019-05-15T20:35:28.293Z,2.50
2019-05-15T20:37:54.977Z,2.10
2019-05-15T20:40:21.634Z,2.55
2019-05-15T20:42:48.505Z,2.30
2019-05-15T20:45:17.841Z,3.87
2019-05-15T20:47:43.961Z,2.50
2019-05-15T20:50:10.889Z,2.95
2019-05-15T20:52:39.477Z,2.30
2019-05-15T20:55:08.074Z,2.95
2019-05-15T20:57:37.622Z,3.52
2019-05-15T21:00:08.001Z,2.20
2019-05-15T21:02:34.465Z,2.75
2019-05-15T21:05:02.159Z,3.15
2019-05-15T21:07:38.196Z,2.62
2019-05-15T21:09:58.764Z,3.20
2019-05-15T21:12:27.052Z,3.15
2019-05-15T21:14:53.515Z,3.62
2019-05-15T21:17:20.174Z,3.42
2019-05-15T21:19:48.821Z,3.87
2019-05-15T21:22:14.945Z,2.85
2019-05-15T21:24:41.614Z,2.80
2019-05-15T21:27:07.950Z,3.40
2019-05-15T21:29:34.463Z,3.58
2019-05-15T21:32:01.076Z,2.98
2019-05-15T21:34:37.315Z,3.00
2019-05-15T21:36:55.988Z,3.02
2019-05-15T21:39:22.636Z,2.98
2019-05-15T21:41:49.392Z,3.37
2019-05-15T21:44:15.932Z,3.47
2019-05-15T21:46:42.582Z,3.40
2019-05-15T21:49:09.196Z,2.80
2019-05-15T21:51:35.897Z,3.00
2019-05-15T21:54:02.663Z,3.33
2019-05-15T21:56:29.132Z,3.87
2019-05-15T21:58:55.752Z,3.92
2019-05-15T22:01:22.696Z,3.85
2019-05-15T22:03:49.112Z,4.67
2019-05-15T22:06:18.479Z,4.33
2019-05-15T22:08:44.839Z,4.92
2019-05-15T22:11:12.276Z,4.22
2019-05-15T22:13:39.485Z,3.77
2019-05-15T22:16:08.128Z,3.20
2019-05-15T22:18:34.694Z,2.60
2019-05-15T22:21:01.737Z,3.50
2019-05-15T22:23:28.316Z,3.42
2019-05-15T22:25:54.999Z,3.10
2019-05-15T22:28:21.567Z,3.25
2019-05-15T22:30:48.195Z,5.65
2019-05-15T22:33:14.852Z,4.53
2019-05-15T22:35:41.471Z,4.33
2019-05-15T22:38:08.865Z,4.28
2019-05-15T22:40:37.678Z,4.55
2019-05-15T22:43:03.836Z,5.00
2019-05-15T22:45:30.505Z,4.53
2019-05-15T22:47:58.510Z,4.58
2019-05-15T22:50:27.855Z,4.10
2019-05-15T22:52:53.662Z,4.03
2019-05-15T22:55:20.328Z,4.10
2019-05-15T22:57:48.195Z,3.90
2019-05-15T23:00:16.239Z,4.67
2019-05-15T23:02:42.711Z,5.72
2019-05-15T23:05:23.946Z,4.83
2019-05-15T23:07:38.958Z,4.12
2019-05-15T23:10:08.866Z,3.52
2019-05-15T23:12:35.020Z,3.08
2019-05-15T23:15:02.618Z,3.22
2019-05-15T23:17:29.091Z,3.50
2019-05-15T23:19:58.081Z,4.45
2019-05-15T23:22:24.019Z,3.25
2019-05-15T23:24:50.635Z,2.65
2019-05-15T23:27:18.170Z,3.52
2019-05-15T23:29:45.260Z,2.52
2019-05-15T23:32:11.778Z,3.12
2019-05-15T23:34:38.740Z,3.10
2019-05-15T23:37:05.143Z,2.47
2019-05-15T23:39:31.683Z,2.80
2019-05-15T23:41:58.530Z,3.22
2019-05-15T23:44:24.952Z,3.25
2019-05-15T23:46:51.828Z,4.35
2019-05-15T23:49:19.909Z,3.67
2019-05-15T23:51:48.678Z,4.35
2019-05-15T23:54:14.381Z,3.58
2019-05-15T23:56:41.014Z,3.50
2019-05-15T23:59:08.370Z,4.08
